首页
METAR-TAF:

METAR-TAF

机场 :

哈尔滨太平国际机场

哈尔滨, 中华人民共和国

纬度: 45-45N, 经度: 126-46E, 海拔: 143米

当前天气观测

该预报发布于29分钟前的02:00 UTC
风速12节,风向南转西南
温度 27°C
湿度 62%
气压 1008 hPa
能见度10公里或以上
1500米以下无云,无积雨云

METAR: ZYHB 190200Z 21006MPS CAVOK 27/19 Q1008 NOSIG

时间: 10:29 (02:29 UTC)

预报

该预报发布于7小时和4分钟前的19:25 UTC
预报有效从19日的 00点(UTC)到 19日的 24点(UTC)
风速8节,风向南转西南
能见度10公里或以上
1500米以下无云,无积雨云

TAF: ZYHB 181925Z 1900/1924 21004MPS CAVOK TX30/1906Z TN18/1921Z

超过4000个机场的气象观测和天气预报(METAR&TAF报告)。

可查询的气象台以黄色和红色小点在地图上表示。

将鼠标移到小点上方,可查看气象台名称。

然后点击查看天气观测和预报。

如需切换地图:点击带黑十字的绿色按钮放大地图;点击带横线的绿色按钮缩小地图;或者点击绿色箭头查看邻近地区的地图。


METAR-TAF: